createdAt,value
2018-07-28T10:38:39.290Z,60.06
2018-07-28T10:39:42.609Z,60.34
2018-07-28T20:18:04.071Z,58.31
2018-07-28T20:19:08.532Z,56.93
2018-07-28T20:20:13.834Z,57.69
2018-07-28T20:21:17.101Z,57.23
2018-07-28T20:22:20.508Z,56.98
2018-07-28T20:23:23.421Z,56.39
2018-07-28T20:24:26.226Z,56.43
2018-07-28T20:25:28.778Z,55.66
2018-07-28T20:26:31.349Z,57.03
2018-07-28T20:27:37.594Z,55.39
2018-07-28T20:28:40.560Z,56.33
2018-07-28T20:29:44.233Z,55.91
2018-07-28T20:30:46.786Z,56.03
2018-07-28T20:31:49.523Z,55.38
2018-07-28T20:32:52.230Z,55.20
2018-07-28T20:33:55.397Z,55.20
2018-07-28T20:34:58.011Z,55.84
2018-07-28T20:36:00.845Z,56.09
2018-07-28T20:37:03.402Z,56.38
2018-07-28T20:38:05.944Z,56.50
2018-07-28T20:39:08.478Z,56.57
2018-07-28T20:40:11.555Z,56.36
2018-07-28T20:41:16.160Z,55.53
2018-07-28T20:42:18.990Z,56.05
2018-07-28T20:43:21.522Z,55.58
2018-07-28T20:44:25.548Z,55.39
2018-07-28T20:45:28.092Z,55.44
2018-07-28T20:46:31.659Z,56.04
2018-07-28T20:47:34.322Z,56.21
2018-07-28T20:48:38.117Z,56.22
2018-07-28T20:49:40.694Z,56.25
2018-07-28T20:50:44.379Z,55.54
2018-07-28T20:51:48.565Z,55.53
2018-07-28T20:52:51.298Z,55.55
2018-07-28T20:53:55.656Z,55.93
2018-07-28T20:54:58.524Z,55.81
2018-07-28T20:56:01.212Z,56.56
2018-07-28T20:57:07.442Z,56.51
2018-07-28T21:07:52.566Z,58.01
2018-07-28T21:08:57.308Z,57.21
2018-07-28T21:10:02.199Z,56.78
2018-07-28T21:11:05.344Z,56.36
2018-07-28T21:12:09.775Z,56.52
2018-07-28T21:13:14.280Z,57.06
2018-07-28T21:14:17.138Z,55.89
2018-07-28T21:15:19.784Z,56.61
2018-07-28T21:16:22.358Z,56.86
2018-07-28T21:17:24.933Z,56.92
2018-07-28T21:18:27.594Z,56.27
2018-07-28T21:19:30.965Z,57.59
2018-07-28T21:20:33.629Z,57.70
2018-07-28T21:21:36.470Z,57.71
2018-07-28T21:22:42.156Z,57.74
2018-07-28T21:23:44.943Z,56.60
2018-07-28T21:24:47.515Z,56.48
2018-07-28T21:25:53.436Z,56.60
2018-07-28T21:26:56.639Z,57.03
2018-07-28T21:28:00.240Z,56.91
2018-07-28T21:29:02.866Z,55.98
2018-07-28T21:30:06.053Z,56.62
2018-07-28T21:31:08.784Z,55.74
2018-07-28T21:32:11.748Z,56.64
2018-07-28T21:33:15.403Z,56.29
2018-07-28T21:34:18.157Z,56.52
2018-07-28T21:35:21.265Z,56.56
2018-07-28T21:36:24.559Z,55.51
2018-07-28T21:37:28.068Z,55.65
2018-07-28T21:38:31.884Z,56.62
2018-07-28T21:39:34.436Z,56.44
2018-07-28T21:40:36.961Z,55.62
2018-07-28T21:43:04.750Z,55.70
2018-07-28T21:44:07.293Z,56.24
2018-07-28T21:45:10.149Z,56.56
2018-07-28T21:46:13.875Z,56.64
2018-07-28T21:47:16.467Z,56.56
2018-07-28T21:48:18.993Z,55.67
2018-07-28T21:49:21.550Z,56.35
2018-07-28T21:50:24.136Z,56.35
2018-07-28T21:51:28.720Z,56.53
2018-07-28T21:52:31.280Z,55.75
2018-07-28T21:53:33.860Z,56.14
2018-07-28T21:54:36.382Z,56.30
2018-07-28T21:56:46.335Z,56.37
2018-07-28T21:57:49.319Z,55.49
2018-07-28T21:58:51.882Z,55.41
2018-07-28T21:59:54.433Z,55.96
2018-07-28T22:00:57.024Z,56.42
2018-07-28T22:02:00.344Z,55.46
2018-07-28T22:03:02.906Z,55.99
2018-07-28T22:04:05.736Z,55.62
2018-07-28T22:05:08.593Z,56.37
2018-07-28T22:07:19.068Z,56.38
2018-07-28T22:08:21.616Z,55.52
2018-07-28T22:09:24.341Z,55.59
2018-07-28T22:10:27.238Z,56.47
2018-07-28T22:11:29.832Z,55.55
2018-07-28T22:12:35.875Z,56.24
2018-07-28T22:13:38.601Z,56.46
2018-07-28T22:14:41.300Z,55.54
2018-07-28T22:15:43.893Z,56.30
2018-07-28T22:16:46.762Z,56.21
2018-07-28T22:17:49.291Z,55.37
2018-07-28T22:18:51.868Z,56.07
2018-07-28T22:19:54.413Z,56.11
2018-07-28T22:20:59.041Z,56.25
2018-07-28T22:22:01.612Z,56.55
2018-07-28T22:23:04.538Z,56.84
2018-07-28T22:24:07.104Z,55.83
2018-07-28T22:25:10.666Z,55.37
2018-07-28T22:26:13.233Z,55.12
